createdAt,value
2019-05-05T00:00:14.413Z,72.39
2019-05-05T00:01:14.680Z,72.63
2019-05-05T00:02:14.399Z,72.19
2019-05-05T00:03:14.744Z,71.98
2019-05-05T00:04:14.908Z,71.77
2019-05-05T00:05:15.469Z,71.98
2019-05-05T00:06:14.714Z,71.73
2019-05-05T00:07:14.927Z,71.67
2019-05-05T00:08:15.292Z,71.77
2019-05-05T00:09:14.631Z,71.88
2019-05-05T00:10:15.105Z,71.77
2019-05-05T00:11:15.369Z,71.88
2019-05-05T00:12:14.723Z,72.08
2019-05-05T00:13:14.999Z,71.84
2019-05-05T00:14:15.220Z,71.88
2019-05-05T00:15:14.594Z,71.77
2019-05-05T00:16:15.167Z,71.46
2019-05-05T00:17:14.477Z,71.56
2019-05-05T00:18:14.834Z,71.63
2019-05-05T00:19:19.122Z,71.56
2019-05-05T00:20:14.729Z,71.56
2019-05-05T00:21:15.160Z,71.98
2019-05-05T00:22:15.169Z,71.88
2019-05-05T00:23:14.560Z,71.67
2019-05-05T00:24:15.184Z,72.08
2019-05-05T00:25:14.324Z,72.11
2019-05-05T00:26:14.892Z,72.08
2019-05-05T00:27:14.994Z,71.88
2019-05-05T00:28:14.307Z,72.19
2019-05-05T00:29:14.855Z,72.08
2019-05-05T00:30:14.384Z,72.22
2019-05-05T00:31:15.008Z,72.08
2019-05-05T00:32:15.282Z,72.22
2019-05-05T00:33:14.500Z,72.19
2019-05-05T00:34:15.305Z,72.74
2019-05-05T00:35:14.846Z,72.63
2019-05-05T00:36:14.545Z,72.94
2019-05-05T00:37:15.241Z,72.74
2019-05-05T00:38:14.300Z,73.05
2019-05-05T00:39:14.973Z,72.84
2019-05-05T00:40:14.207Z,72.94
2019-05-05T00:41:14.805Z,73.05
2019-05-05T00:42:15.439Z,73.57
2019-05-05T00:43:14.738Z,73.57
2019-05-05T00:44:15.331Z,73.77
2019-05-05T00:45:14.786Z,73.77
2019-05-05T00:46:15.967Z,73.91
2019-05-05T00:47:14.580Z,73.98
2019-05-05T00:48:15.332Z,74.08
2019-05-05T00:49:14.555Z,74.11
2019-05-05T00:50:14.600Z,74.19
2019-05-05T00:51:15.130Z,73.88
2019-05-05T00:52:14.276Z,74.08
2019-05-05T00:53:14.586Z,73.98
2019-05-05T00:54:14.870Z,73.91
2019-05-05T00:55:15.078Z,73.88
2019-05-05T00:56:14.395Z,73.70
2019-05-05T00:57:15.007Z,73.67
2019-05-05T00:58:14.286Z,73.70
2019-05-05T00:59:14.670Z,74.01
2019-05-05T01:00:15.192Z,73.91
2019-05-05T01:01:14.401Z,73.49
2019-05-05T01:02:15.054Z,73.70
2019-05-05T01:03:15.207Z,73.80
2019-05-05T01:04:14.509Z,74.01
2019-05-05T01:05:14.904Z,74.53
2019-05-05T01:06:14.965Z,73.91
2019-05-05T01:07:14.320Z,74.32
2019-05-05T01:08:14.397Z,74.57
2019-05-05T01:09:14.833Z,74.36
2019-05-05T01:10:14.254Z,74.77
2019-05-05T01:11:14.481Z,74.74
2019-05-05T01:12:14.972Z,75.15
2019-05-05T01:13:15.204Z,75.09
2019-05-05T01:14:14.417Z,75.50
2019-05-05T01:15:15.023Z,75.50
2019-05-05T01:16:15.158Z,75.81
2019-05-05T01:17:14.674Z,75.50
2019-05-05T01:18:15.204Z,75.46
2019-05-05T01:19:14.961Z,75.50
2019-05-05T01:20:14.629Z,75.50
2019-05-05T01:21:14.904Z,75.40
2019-05-05T01:22:14.389Z,75.92
2019-05-05T01:23:14.908Z,75.92
2019-05-05T01:24:14.406Z,76.12
2019-05-05T01:25:14.779Z,76.02
2019-05-05T01:26:14.347Z,75.40
2019-05-05T01:27:14.754Z,76.12
2019-05-05T01:28:14.348Z,75.40
2019-05-05T01:29:14.650Z,75.71
2019-05-05T01:30:12.887Z,75.29
2019-05-05T01:31:14.656Z,75.50
2019-05-05T01:32:12.896Z,75.40
2019-05-05T01:33:14.538Z,75.50
2019-05-05T01:34:14.946Z,75.40
2019-05-05T01:35:14.416Z,76.02
2019-05-05T01:36:14.753Z,75.95
2019-05-05T01:37:12.832Z,76.09
2019-05-05T01:38:14.226Z,76.47
2019-05-05T01:39:14.678Z,76.81
2019-05-05T01:40:14.207Z,76.50
2019-05-05T01:41:14.698Z,77.58
2019-05-05T01:42:14.344Z,77.26
2019-05-05T01:43:14.502Z,77.16
2019-05-05T01:44:12.744Z,77.26
2019-05-05T01:45:14.815Z,77.37
2019-05-05T01:46:14.331Z,77.37
2019-05-05T01:47:14.611Z,77.82
2019-05-05T01:48:14.279Z,77.89
2019-05-05T01:49:14.533Z,78.03
2019-05-05T01:50:18.366Z,77.82
2019-05-05T01:51:14.370Z,77.82
2019-05-05T01:52:14.726Z,78.03
2019-05-05T01:53:12.658Z,78.13
2019-05-05T01:54:14.487Z,78.44
2019-05-05T01:55:14.550Z,78.34
2019-05-05T01:56:12.619Z,78.75
2019-05-05T01:57:14.599Z,78.65
2019-05-05T01:58:12.603Z,78.34
2019-05-05T01:59:14.366Z,78.55
2019-05-05T02:00:14.696Z,78.65
2019-05-05T02:01:12.566Z,78.55
2019-05-05T02:02:14.477Z,78.65
2019-05-05T02:03:14.630Z,78.34
2019-05-05T02:04:14.435Z,78.55
2019-05-05T02:05:14.638Z,78.03
2019-05-05T02:06:14.242Z,78.75
2019-05-05T02:07:14.404Z,78.75
2019-05-05T02:08:12.491Z,78.86
2019-05-05T02:09:12.504Z,78.96
2019-05-05T02:10:12.479Z,79.03
2019-05-05T02:11:12.467Z,79.06
2019-05-05T02:12:12.458Z,79.44
2019-05-05T02:13:12.453Z,79.17
2019-05-05T02:14:12.437Z,79.17
2019-05-05T02:15:14.706Z,79.38
2019-05-05T02:16:12.411Z,78.86
2019-05-05T02:17:14.261Z,78.96
2019-05-05T02:18:14.904Z,79.06
2019-05-05T02:19:14.204Z,79.27
2019-05-05T02:20:14.136Z,79.83
2019-05-05T02:21:14.167Z,79.69
2019-05-05T02:22:14.473Z,80.04
2019-05-05T02:23:12.336Z,79.52
2019-05-05T02:24:14.360Z,79.62
2019-05-05T02:25:12.308Z,80.04
2019-05-05T02:26:12.300Z,79.94
2019-05-05T02:27:14.389Z,80.46
2019-05-05T02:28:12.288Z,80.35
2019-05-05T02:29:14.207Z,80.46
2019-05-05T02:30:12.277Z,80.46
2019-05-05T02:31:12.255Z,79.83
2019-05-05T02:32:12.244Z,79.94
2019-05-05T02:33:15.450Z,79.41
2019-05-05T02:34:12.247Z,79.41
2019-05-05T02:35:12.250Z,79.83
2019-05-05T02:36:12.211Z,79.94
2019-05-05T02:37:12.194Z,79.41
2019-05-05T02:38:15.382Z,79.52
2019-05-05T02:39:12.185Z,79.94
2019-05-05T02:40:15.637Z,80.04
2019-05-05T02:41:15.244Z,80.21
2019-05-05T02:42:14.519Z,79.62
2019-05-05T02:43:14.823Z,79.94
2019-05-05T02:44:15.206Z,80.00
2019-05-05T02:45:12.113Z,79.72
2019-05-05T02:46:14.364Z,80.32
2019-05-05T02:47:15.193Z,80.56
2019-05-05T02:48:15.072Z,80.04
2019-05-05T02:49:14.907Z,80.32
2019-05-05T02:50:12.061Z,80.25
2019-05-05T02:51:14.793Z,80.35
2019-05-05T02:52:14.926Z,80.56
2019-05-05T02:53:14.214Z,80.66
2019-05-05T02:54:13.666Z,80.66
2019-05-05T02:55:12.005Z,80.66
2019-05-05T02:56:11.993Z,80.77
2019-05-05T02:57:13.474Z,81.08
2019-05-05T02:58:13.935Z,81.18
2019-05-05T02:59:11.984Z,81.29
2019-05-05T03:00:13.497Z,81.39
2019-05-05T03:01:13.940Z,81.39
2019-05-05T03:02:11.934Z,81.04
2019-05-05T03:03:13.478Z,81.08
2019-05-05T03:04:13.954Z,80.98
2019-05-05T03:05:14.143Z,80.63
2019-05-05T03:06:11.894Z,80.98
2019-05-05T03:07:13.764Z,80.98
2019-05-05T03:08:13.742Z,80.98
2019-05-05T03:09:13.719Z,80.98
2019-05-05T03:10:13.969Z,81.29
2019-05-05T03:11:11.837Z,80.87
2019-05-05T03:12:11.847Z,81.08
2019-05-05T03:13:13.786Z,80.77
2019-05-05T03:14:11.811Z,80.87
2019-05-05T03:15:11.806Z,80.73
2019-05-05T03:16:11.799Z,81.15
2019-05-05T03:17:13.678Z,80.77
2019-05-05T03:18:13.461Z,80.56
2019-05-05T03:19:11.751Z,80.66
2019-05-05T03:20:11.757Z,80.87
2019-05-05T03:21:13.899Z,80.98
2019-05-05T03:22:11.736Z,80.77
2019-05-05T03:23:13.567Z,80.87
2019-05-05T03:24:11.701Z,80.77
2019-05-05T03:25:13.563Z,80.98
2019-05-05T03:26:11.678Z,80.66
2019-05-05T03:27:11.671Z,80.25
2019-05-05T03:28:13.463Z,80.21
2019-05-05T03:29:13.741Z,80.35
2019-05-05T03:30:11.651Z,80.87
2019-05-05T03:31:11.628Z,80.98
2019-05-05T03:32:11.918Z,81.08
2019-05-05T03:33:11.617Z,81.08
2019-05-05T03:34:11.601Z,80.87
2019-05-05T03:35:13.480Z,80.98
2019-05-05T03:36:11.567Z,80.98
2019-05-05T03:37:11.559Z,80.83
2019-05-05T03:38:11.554Z,80.77
2019-05-05T03:39:11.545Z,81.18
2019-05-05T03:40:11.552Z,80.87
2019-05-05T03:41:13.513Z,80.98
2019-05-05T03:42:11.505Z,80.87
2019-05-05T03:43:11.501Z,80.77
2019-05-05T03:44:11.496Z,80.77
2019-05-05T03:45:11.514Z,80.77
2019-05-05T03:46:13.520Z,80.56
2019-05-05T03:47:11.460Z,80.35
2019-05-05T03:48:13.549Z,80.35
2019-05-05T03:49:11.435Z,80.25
2019-05-05T03:50:11.426Z,79.72
2019-05-05T03:51:18.859Z,79.72
2019-05-05T03:52:13.877Z,79.83
2019-05-05T03:53:11.403Z,79.94
2019-05-05T03:54:11.387Z,80.25
2019-05-05T03:55:11.379Z,80.46
2019-05-05T03:56:11.383Z,79.83
2019-05-05T03:57:11.358Z,79.72
2019-05-05T03:58:11.362Z,80.15
2019-05-05T03:59:11.337Z,80.56
2019-05-05T04:00:11.321Z,80.46
2019-05-05T04:01:11.327Z,80.98
2019-05-05T04:02:11.300Z,81.39
2019-05-05T04:03:11.293Z,81.70
2019-05-05T04:04:11.289Z,81.49
2019-05-05T04:05:11.280Z,81.46
2019-05-05T04:06:11.273Z,81.56
2019-05-05T04:07:11.259Z,81.77
2019-05-05T04:08:11.240Z,81.39
2019-05-05T04:09:11.231Z,81.35
2019-05-05T04:10:11.224Z,80.94
2019-05-05T04:11:11.228Z,80.94
2019-05-05T04:12:11.204Z,80.83
2019-05-05T04:13:11.190Z,80.94
2019-05-05T04:14:11.178Z,80.83
2019-05-05T04:15:11.170Z,80.32
2019-05-05T04:16:11.181Z,80.42
2019-05-05T04:17:11.156Z,80.00
2019-05-05T04:18:11.143Z,80.11
2019-05-05T04:19:11.141Z,80.32
2019-05-05T04:20:11.118Z,80.42
2019-05-05T04:21:11.119Z,80.00
2019-05-05T04:22:11.097Z,80.00
2019-05-05T04:23:11.080Z,80.32
2019-05-05T04:24:11.082Z,80.11
2019-05-05T04:25:11.067Z,80.52
2019-05-05T04:26:11.080Z,80.52
2019-05-05T04:27:11.046Z,80.18
2019-05-05T04:28:11.034Z,80.28
2019-05-05T04:29:11.018Z,79.86
2019-05-05T04:30:11.017Z,79.76
2019-05-05T04:31:11.013Z,79.76
2019-05-05T04:32:10.992Z,79.76
2019-05-05T04:33:10.973Z,79.76
2019-05-05T04:34:10.969Z,79.86
2019-05-05T04:35:10.953Z,79.61
2019-05-05T04:36:10.967Z,79.10
2019-05-05T04:37:10.963Z,78.99
2019-05-05T04:38:10.937Z,78.89
2019-05-05T04:39:10.921Z,78.96
2019-05-05T04:40:10.913Z,78.55
2019-05-05T04:41:10.919Z,77.82
2019-05-05T04:42:10.883Z,77.82
2019-05-05T04:43:10.881Z,77.92
2019-05-05T04:44:10.880Z,77.78
2019-05-05T04:45:10.853Z,77.68
2019-05-05T04:46:10.855Z,77.26
2019-05-05T04:47:10.844Z,77.37
2019-05-05T04:48:10.830Z,77.37
2019-05-05T04:49:10.833Z,77.37
2019-05-05T04:50:10.819Z,77.16
2019-05-05T04:51:10.796Z,76.95
2019-05-05T04:52:10.807Z,77.37
2019-05-05T04:53:10.771Z,77.47
2019-05-05T04:54:10.755Z,76.75
2019-05-05T04:55:10.743Z,76.33
2019-05-05T04:56:10.750Z,76.09
2019-05-05T04:57:10.745Z,77.23
2019-05-05T04:58:10.729Z,76.61
2019-05-05T04:59:10.716Z,76.50
2019-05-05T05:00:10.693Z,76.09
2019-05-05T05:01:10.708Z,76.09
2019-05-05T05:02:10.697Z,76.50
2019-05-05T05:03:10.673Z,77.23
2019-05-05T05:04:10.656Z,76.29
2019-05-05T05:05:10.653Z,77.12
2019-05-05T05:06:10.633Z,76.88
2019-05-05T05:07:10.638Z,76.88
2019-05-05T05:08:10.618Z,76.05
2019-05-05T05:09:10.610Z,77.40
2019-05-05T05:10:10.596Z,77.29
2019-05-05T05:11:10.600Z,77.29
2019-05-05T05:12:10.581Z,77.26
2019-05-05T05:13:10.556Z,76.19
2019-05-05T05:14:10.548Z,75.43
2019-05-05T05:15:10.537Z,73.60
2019-05-05T05:16:10.543Z,72.33
2019-05-05T05:17:10.543Z,71.12
2019-05-05T05:18:10.502Z,69.75
2019-05-05T05:19:10.495Z,68.35
2019-05-05T05:20:10.492Z,67.29
2019-05-05T05:21:10.525Z,66.74
2019-05-05T05:22:10.493Z,64.75
2019-05-05T05:23:10.471Z,64.51
2019-05-05T05:24:10.446Z,63.35
2019-05-05T05:25:10.432Z,63.12
2019-05-05T05:26:10.437Z,62.37
2019-05-05T05:27:10.419Z,61.21
2019-05-05T05:28:10.423Z,60.23
2019-05-05T05:29:10.406Z,58.97
2019-05-05T05:30:10.387Z,57.92
2019-05-05T05:31:10.380Z,56.56
2019-05-05T05:32:10.357Z,57.25
2019-05-05T05:33:10.354Z,56.23
2019-05-05T05:34:10.382Z,54.67
2019-05-05T05:35:10.328Z,54.54
2019-05-05T05:36:10.313Z,54.10
2019-05-05T05:37:10.305Z,53.16
2019-05-05T05:38:10.305Z,52.52
2019-05-05T05:39:10.291Z,52.60
2019-05-05T05:40:10.285Z,51.45
2019-05-05T05:41:10.268Z,50.41
2019-05-05T05:42:10.257Z,49.67
2019-05-05T05:43:10.260Z,49.34
2019-05-05T05:44:10.232Z,49.21
2019-05-05T05:45:10.219Z,47.85
2019-05-05T05:46:10.226Z,47.95
2019-05-05T05:47:10.197Z,46.78
2019-05-05T05:48:10.216Z,47.09
2019-05-05T05:49:10.180Z,46.98
2019-05-05T05:50:10.167Z,46.56
2019-05-05T05:51:10.157Z,45.93
2019-05-05T05:52:15.998Z,45.11
2019-05-05T05:53:11.150Z,44.99
2019-05-05T05:54:10.127Z,44.16
2019-05-05T05:55:10.123Z,43.43
2019-05-05T05:56:10.116Z,43.41
2019-05-05T05:57:10.097Z,43.29
2019-05-05T05:58:10.095Z,43.18
2019-05-05T05:59:10.069Z,43.18
2019-05-05T06:00:10.067Z,42.57
2019-05-05T06:01:10.054Z,43.16
2019-05-05T06:02:13.425Z,42.05
2019-05-05T06:03:11.056Z,42.46
2019-05-05T06:04:10.022Z,42.17
2019-05-05T06:05:10.016Z,42.07
2019-05-05T06:06:10.001Z,43.20
2019-05-05T06:07:09.987Z,42.98
2019-05-05T06:08:09.995Z,41.86
2019-05-05T06:09:09.958Z,41.93
2019-05-05T06:10:21.421Z,41.24
2019-05-05T06:11:10.938Z,41.20
2019-05-05T06:12:09.932Z,40.69
2019-05-05T06:13:09.924Z,40.89
2019-05-05T06:14:09.939Z,41.00
2019-05-05T06:15:09.912Z,40.37
2019-05-05T06:16:09.901Z,41.09
2019-05-05T06:17:09.874Z,40.88
2019-05-05T06:18:09.865Z,40.47
2019-05-05T06:19:10.392Z,40.15
2019-05-05T06:20:09.853Z,40.45
2019-05-05T06:21:09.845Z,39.42
2019-05-05T06:22:09.825Z,39.73
2019-05-05T06:23:09.810Z,39.73
2019-05-05T06:24:09.823Z,39.83
2019-05-05T06:25:09.797Z,39.54
2019-05-05T06:26:09.796Z,39.24
2019-05-05T06:27:09.777Z,39.64
2019-05-05T06:28:09.760Z,39.83
2019-05-05T06:29:09.781Z,39.81
2019-05-05T06:30:09.735Z,39.08
2019-05-05T06:31:09.728Z,38.76
2019-05-05T06:32:09.726Z,38.86
2019-05-05T06:33:09.723Z,37.93
2019-05-05T06:34:09.715Z,37.70
2019-05-05T06:35:09.693Z,37.80
2019-05-05T06:36:09.670Z,37.27
2019-05-05T06:37:09.663Z,37.06
2019-05-05T06:38:09.656Z,37.06
2019-05-05T06:39:09.682Z,36.04
2019-05-05T06:40:09.652Z,36.24
2019-05-05T06:41:09.622Z,35.71
2019-05-05T06:42:09.607Z,34.71
2019-05-05T06:43:09.603Z,35.21
2019-05-05T06:44:09.617Z,35.30
2019-05-05T06:45:09.579Z,34.98
2019-05-05T06:46:09.574Z,35.06
2019-05-05T06:47:09.564Z,34.34
2019-05-05T06:48:09.540Z,33.71
2019-05-05T06:49:09.548Z,32.89
2019-05-05T06:50:09.525Z,32.77
2019-05-05T06:51:09.514Z,32.97
2019-05-05T06:52:09.512Z,32.90
2019-05-05T06:53:09.499Z,33.22
2019-05-05T06:54:09.490Z,33.45
2019-05-05T06:55:09.474Z,34.26
2019-05-05T06:56:09.462Z,33.84
2019-05-05T06:57:09.453Z,33.84
2019-05-05T06:58:09.451Z,33.74
2019-05-05T06:59:09.451Z,33.74
2019-05-05T07:00:09.415Z,34.16
2019-05-05T07:01:09.403Z,34.16
2019-05-05T07:02:09.394Z,33.14
2019-05-05T07:03:09.385Z,33.12
2019-05-05T07:04:09.387Z,33.54
2019-05-05T07:05:09.356Z,33.00
2019-05-05T07:06:09.358Z,33.11
2019-05-05T07:07:09.334Z,31.68
2019-05-05T07:08:09.346Z,32.30
2019-05-05T07:09:09.338Z,33.32
2019-05-05T07:10:09.327Z,33.32
2019-05-05T07:11:09.317Z,33.44
2019-05-05T07:12:09.297Z,33.32
2019-05-05T07:13:09.276Z,32.09
2019-05-05T07:14:09.268Z,32.35
2019-05-05T07:15:09.272Z,31.64
2019-05-05T07:16:12.175Z,30.32
2019-05-05T07:17:09.231Z,31.52
2019-05-05T07:18:09.227Z,30.44
2019-05-05T07:19:09.206Z,29.72
2019-05-05T07:20:09.226Z,29.71
2019-05-05T07:21:09.197Z,29.30
2019-05-05T07:22:09.194Z,30.38
2019-05-05T07:23:09.176Z,29.47
2019-05-05T07:24:09.157Z,29.06
2019-05-05T07:25:09.158Z,29.18
2019-05-05T07:26:09.139Z,30.21
2019-05-05T07:27:09.132Z,29.10
2019-05-05T07:28:09.123Z,29.58
2019-05-05T07:29:09.103Z,29.30
2019-05-05T07:30:09.136Z,28.88
2019-05-05T07:31:09.106Z,29.38
2019-05-05T07:32:09.075Z,28.80
2019-05-05T07:33:09.067Z,28.81
2019-05-05T07:34:09.055Z,29.10
2019-05-05T07:35:09.058Z,28.80
2019-05-05T07:36:09.026Z,28.57
2019-05-05T07:37:09.013Z,28.17
2019-05-05T07:38:09.010Z,29.08
2019-05-05T07:39:09.002Z,29.06
2019-05-05T07:40:09.030Z,29.18
2019-05-05T07:41:08.982Z,28.50
2019-05-05T07:42:08.966Z,28.48
2019-05-05T07:43:08.950Z,28.28
2019-05-05T07:44:22.256Z,27.58
2019-05-05T07:45:20.348Z,26.97
2019-05-05T07:46:09.928Z,27.87
2019-05-05T07:47:08.919Z,27.57
2019-05-05T07:48:08.902Z,27.77
2019-05-05T07:49:08.915Z,26.77
2019-05-05T07:50:14.506Z,28.18
2019-05-05T07:51:09.871Z,26.97
2019-05-05T07:52:08.987Z,26.45
2019-05-05T07:53:14.648Z,25.74
2019-05-05T07:54:09.840Z,25.66
2019-05-05T07:55:08.842Z,25.74
2019-05-05T07:56:08.815Z,26.14
2019-05-05T07:57:08.807Z,25.63
2019-05-05T07:58:08.808Z,25.11
2019-05-05T07:59:08.795Z,25.31
2019-05-05T08:00:08.793Z,24.62
2019-05-05T08:01:08.762Z,24.60
2019-05-05T08:02:08.765Z,24.20
2019-05-05T08:03:08.754Z,23.08
2019-05-05T08:04:08.748Z,23.77
2019-05-05T08:05:08.748Z,22.85
2019-05-05T08:06:08.720Z,22.06
2019-05-05T08:07:08.703Z,21.95
2019-05-05T08:08:08.693Z,21.96
2019-05-05T08:09:08.689Z,21.76
2019-05-05T08:10:08.716Z,22.36
2019-05-05T08:11:08.657Z,23.76
2019-05-05T08:12:08.666Z,23.97
2019-05-05T08:13:08.641Z,24.68
2019-05-05T08:14:08.625Z,24.30
2019-05-05T08:15:08.627Z,23.52
2019-05-05T08:16:08.623Z,23.83
2019-05-05T08:17:08.614Z,24.22
2019-05-05T08:18:08.594Z,24.32
2019-05-05T08:19:08.577Z,23.68
2019-05-05T08:20:08.582Z,22.75
2019-05-05T08:21:08.562Z,21.86
2019-05-05T08:22:08.543Z,21.46
2019-05-05T08:23:08.539Z,21.95
2019-05-05T08:24:08.529Z,21.45
2019-05-05T08:25:08.533Z,21.45
2019-05-05T08:26:08.525Z,21.94
2019-05-05T08:27:08.506Z,22.45
2019-05-05T08:28:08.479Z,22.28
2019-05-05T08:29:08.476Z,24.45
2019-05-05T08:30:08.482Z,25.07
2019-05-05T08:31:08.468Z,26.18
2019-05-05T08:32:08.443Z,25.95
2019-05-05T08:33:08.434Z,27.73
2019-05-05T08:34:08.421Z,25.98
2019-05-05T08:35:08.672Z,26.68
2019-05-05T08:36:08.592Z,24.48
2019-05-05T08:37:08.396Z,22.42
2019-05-05T08:38:08.388Z,21.97
2019-05-05T08:39:08.382Z,21.92
2019-05-05T08:40:08.363Z,21.81
2019-05-05T08:41:08.366Z,20.08
2019-05-05T08:42:08.345Z,20.07
2019-05-05T08:43:08.359Z,20.27
2019-05-05T08:44:08.323Z,21.29
2019-05-05T08:45:08.320Z,22.58
2019-05-05T08:46:08.315Z,24.86
2019-05-05T08:47:08.291Z,24.33
2019-05-05T08:48:08.279Z,27.01
2019-05-05T08:49:08.275Z,29.19
2019-05-05T08:50:08.275Z,30.16
2019-05-05T08:51:08.271Z,30.41
2019-05-05T08:52:08.249Z,31.77
2019-05-05T08:53:08.616Z,30.47
2019-05-05T08:54:08.213Z,28.31
2019-05-05T08:55:08.206Z,25.61
2019-05-05T08:56:08.218Z,24.56
2019-05-05T08:57:08.193Z,24.54
2019-05-05T08:58:08.183Z,24.01
2019-05-05T08:59:08.178Z,23.85
2019-05-05T09:00:08.150Z,25.87
2019-05-05T09:01:08.237Z,28.07
2019-05-05T09:02:08.144Z,29.83
2019-05-05T09:03:08.128Z,28.05
2019-05-05T09:04:08.117Z,24.96
2019-05-05T09:05:08.101Z,24.22
2019-05-05T09:06:08.120Z,22.27
2019-05-05T09:07:08.076Z,21.34
2019-05-05T09:08:08.086Z,20.31
2019-05-05T09:09:08.070Z,21.96
2019-05-05T09:10:08.060Z,21.45
2019-05-05T09:11:08.062Z,21.25
2019-05-05T09:12:08.044Z,21.23
2019-05-05T09:13:08.194Z,20.62
2019-05-05T09:14:08.010Z,20.20
2019-05-05T09:15:07.997Z,19.37
2019-05-05T09:16:07.994Z,19.07
2019-05-05T09:17:07.999Z,18.46
2019-05-05T09:18:07.982Z,19.26
2019-05-05T09:19:07.956Z,19.28
2019-05-05T09:20:07.953Z,18.68
2019-05-05T09:21:07.946Z,19.34
2019-05-05T09:22:08.802Z,22.24
2019-05-05T09:23:07.930Z,23.31
2019-05-05T09:24:07.930Z,25.15
2019-05-05T09:25:07.896Z,25.72
2019-05-05T09:26:07.889Z,27.25
2019-05-05T09:27:07.902Z,25.95
2019-05-05T09:28:07.869Z,24.06
2019-05-05T09:29:07.865Z,22.25
2019-05-05T09:30:07.857Z,21.85
2019-05-05T09:31:07.847Z,21.84
2019-05-05T09:32:07.841Z,22.14
2019-05-05T09:33:07.826Z,21.33
2019-05-05T09:34:07.811Z,21.51
2019-05-05T09:35:07.809Z,21.19
2019-05-05T09:36:07.787Z,20.17
2019-05-05T09:37:07.797Z,19.76
2019-05-05T09:38:07.790Z,19.26
2019-05-05T09:39:07.762Z,20.25
2019-05-05T09:40:07.782Z,20.54
2019-05-05T09:41:07.745Z,19.65
2019-05-05T09:42:07.752Z,19.43
2019-05-05T09:43:07.797Z,19.02
2019-05-05T09:44:07.714Z,18.63
2019-05-05T09:45:07.704Z,18.10
2019-05-05T09:46:07.689Z,17.68
2019-05-05T09:47:07.700Z,17.47
2019-05-05T09:48:07.787Z,18.18
2019-05-05T09:49:07.666Z,17.97
2019-05-05T09:50:07.653Z,19.30
2019-05-05T09:51:07.647Z,20.59
2019-05-05T09:52:07.691Z,21.66
2019-05-05T09:53:07.629Z,23.34
2019-05-05T09:54:13.971Z,24.30
2019-05-05T09:55:08.604Z,24.35
2019-05-05T09:56:07.597Z,25.77
2019-05-05T09:57:07.598Z,26.40
2019-05-05T09:58:07.589Z,26.70
2019-05-05T09:59:07.564Z,28.42
2019-05-05T10:00:07.566Z,28.77
2019-05-05T10:01:07.547Z,27.97
2019-05-05T10:02:07.552Z,24.42
2019-05-05T10:03:07.530Z,23.03
2019-05-05T10:04:07.510Z,20.18
2019-05-05T10:05:07.520Z,20.13
2019-05-05T10:06:07.508Z,19.67
2019-05-05T10:07:07.510Z,20.71
2019-05-05T10:08:07.565Z,22.76
2019-05-05T10:09:07.486Z,24.23
2019-05-05T10:10:07.461Z,25.58
2019-05-05T10:11:07.440Z,27.04
2019-05-05T10:12:07.442Z,28.50
2019-05-05T10:13:07.439Z,28.51
2019-05-05T10:14:07.417Z,28.52
2019-05-05T10:15:07.736Z,29.64
2019-05-05T10:16:07.397Z,29.47
2019-05-05T10:17:07.377Z,30.21
2019-05-05T10:18:07.383Z,30.64
2019-05-05T10:19:07.352Z,30.55
2019-05-05T10:20:07.354Z,30.77
2019-05-05T10:21:07.338Z,31.29
2019-05-05T10:22:07.322Z,31.93
2019-05-05T10:23:07.327Z,31.52
2019-05-05T10:24:07.308Z,31.02
2019-05-05T10:25:07.303Z,31.24
2019-05-05T10:26:07.291Z,31.32
2019-05-05T10:27:07.276Z,31.24
2019-05-05T10:28:07.276Z,31.34
2019-05-05T10:29:07.252Z,31.34
2019-05-05T10:30:07.269Z,31.42
2019-05-05T10:31:07.233Z,29.90
2019-05-05T10:32:07.224Z,30.71
2019-05-05T10:33:07.233Z,30.51
2019-05-05T10:34:07.202Z,28.69
2019-05-05T10:35:07.195Z,29.80
2019-05-05T10:36:07.182Z,29.89
2019-05-05T10:37:07.164Z,27.11
2019-05-05T10:38:07.169Z,23.10
2019-05-05T10:39:07.156Z,20.42
2019-05-05T10:40:07.150Z,20.17
2019-05-05T10:41:07.127Z,19.52
2019-05-05T10:42:07.110Z,19.10
2019-05-05T10:43:07.114Z,19.63
2019-05-05T10:44:07.098Z,19.71
2019-05-05T10:45:07.090Z,20.02
2019-05-05T10:46:07.080Z,19.50
2019-05-05T10:47:07.066Z,19.61
2019-05-05T10:48:07.085Z,20.87
2019-05-05T10:49:07.037Z,22.00
2019-05-05T10:50:07.029Z,22.24
2019-05-05T10:51:07.030Z,23.79
2019-05-05T10:52:07.014Z,24.58
2019-05-05T10:53:07.014Z,24.54
2019-05-05T10:54:06.991Z,23.54
2019-05-05T10:55:06.983Z,24.99
2019-05-05T10:56:06.977Z,23.91
2019-05-05T10:57:06.975Z,22.64
2019-05-05T10:58:06.977Z,22.09
2019-05-05T10:59:06.945Z,19.76
2019-05-05T11:00:12.375Z,20.03
2019-05-05T11:01:07.947Z,19.65
2019-05-05T11:02:06.906Z,19.14
2019-05-05T11:03:06.933Z,18.58
2019-05-05T11:04:06.901Z,20.14
2019-05-05T11:05:06.885Z,22.09
2019-05-05T11:06:06.897Z,22.03
2019-05-05T11:07:06.865Z,22.07
2019-05-05T11:08:06.853Z,23.81
2019-05-05T11:09:06.851Z,24.24
2019-05-05T11:10:06.838Z,25.27
2019-05-05T11:11:06.847Z,25.29
2019-05-05T11:12:06.805Z,26.41
2019-05-05T11:13:06.802Z,25.93
2019-05-05T11:14:06.805Z,26.06
2019-05-05T11:15:06.780Z,26.87
2019-05-05T11:16:06.771Z,27.70
2019-05-05T11:17:06.762Z,28.00
2019-05-05T11:18:06.750Z,28.70
2019-05-05T11:19:06.752Z,28.81
2019-05-05T11:20:06.734Z,28.17
2019-05-05T11:21:06.726Z,27.42
2019-05-05T11:22:06.702Z,24.79
2019-05-05T11:23:06.695Z,22.71
2019-05-05T11:24:06.707Z,20.36
2019-05-05T11:25:06.678Z,19.70
2019-05-05T11:26:06.655Z,17.98
2019-05-05T11:27:06.653Z,16.86
2019-05-05T11:28:06.652Z,16.86
2019-05-05T11:29:06.645Z,17.32
2019-05-05T11:30:06.627Z,19.18
2019-05-05T11:31:06.618Z,19.99
2019-05-05T11:32:06.597Z,19.67
2019-05-05T11:33:06.598Z,19.70
2019-05-05T11:34:06.603Z,20.42
2019-05-05T11:35:06.570Z,20.51
2019-05-05T11:36:06.573Z,19.57
2019-05-05T11:37:06.559Z,19.05
2019-05-05T11:38:06.549Z,20.53
2019-05-05T11:39:06.561Z,22.18
2019-05-05T11:40:06.517Z,24.15
2019-05-05T11:41:06.513Z,25.18
2019-05-05T11:42:06.502Z,26.31
2019-05-05T11:43:06.500Z,27.12
2019-05-05T11:44:06.495Z,26.72
2019-05-05T11:45:06.465Z,27.34
2019-05-05T11:46:06.469Z,28.36
2019-05-05T11:47:06.454Z,27.98
2019-05-05T11:48:06.439Z,28.00
2019-05-05T11:49:06.448Z,29.24
2019-05-05T11:50:06.424Z,29.34
2019-05-05T11:51:06.423Z,29.35
2019-05-05T11:52:06.395Z,30.18
2019-05-05T11:53:06.404Z,30.29
2019-05-05T11:54:06.367Z,30.50
2019-05-05T11:55:11.467Z,29.89
2019-05-05T11:56:07.360Z,29.77
2019-05-05T11:57:06.350Z,30.38
2019-05-05T11:58:06.342Z,30.48
2019-05-05T11:59:06.336Z,29.67
2019-05-05T12:00:06.331Z,29.96
2019-05-05T12:01:06.300Z,30.16
2019-05-05T12:02:06.295Z,29.76
2019-05-05T12:03:06.300Z,29.17
2019-05-05T12:04:06.283Z,29.86
2019-05-05T12:05:06.270Z,29.47
2019-05-05T12:06:06.243Z,29.99
2019-05-05T12:07:06.235Z,30.28
2019-05-05T12:08:06.234Z,30.48
2019-05-05T12:09:06.225Z,29.95
2019-05-05T12:10:06.225Z,29.64
2019-05-05T12:11:06.240Z,28.48
2019-05-05T12:12:06.180Z,27.10
2019-05-05T12:13:06.167Z,25.40
2019-05-05T12:14:06.166Z,24.91
2019-05-05T12:15:06.174Z,24.94
2019-05-05T12:16:06.137Z,25.93
2019-05-05T12:17:06.139Z,25.02
2019-05-05T12:18:06.120Z,25.10
2019-05-05T12:19:06.103Z,23.03
2019-05-05T12:20:06.114Z,22.62
2019-05-05T12:21:06.108Z,21.97
2019-05-05T12:22:06.083Z,20.64
2019-05-05T12:23:06.071Z,22.00
2019-05-05T12:24:06.049Z,24.27
2019-05-05T12:25:06.059Z,24.62
2019-05-05T12:26:06.058Z,25.18
2019-05-05T12:27:06.022Z,25.49
2019-05-05T12:28:06.039Z,26.10
2019-05-05T12:29:06.013Z,26.92
2019-05-05T12:30:06.009Z,27.04
2019-05-05T12:31:05.976Z,27.45
2019-05-05T12:32:05.978Z,28.08
2019-05-05T12:33:05.965Z,28.08
2019-05-05T12:34:05.951Z,28.09
2019-05-05T12:35:05.961Z,28.89
2019-05-05T12:36:05.922Z,28.69
2019-05-05T12:37:05.923Z,29.80
2019-05-05T12:38:05.914Z,28.81
2019-05-05T12:39:05.891Z,28.61
2019-05-05T12:40:05.927Z,29.13
2019-05-05T12:41:05.886Z,29.44
2019-05-05T12:42:05.867Z,29.56
2019-05-05T12:43:05.875Z,30.87
2019-05-05T12:44:05.845Z,29.14
2019-05-05T12:45:05.877Z,29.56
2019-05-05T12:46:05.821Z,29.96
2019-05-05T12:47:05.847Z,30.27
2019-05-05T12:48:05.801Z,30.47
2019-05-05T12:49:05.796Z,30.47
2019-05-05T12:50:05.794Z,29.25
2019-05-05T12:51:05.767Z,29.96
2019-05-05T12:52:05.758Z,29.35